Uxbridge, Canada
Current Conditions -  °F | °C
As of 6:00 AM on Friday 28 Nov 2014 (Local Time) from CYKZ Reporting Station
Few Clouds Few Clouds  
Wind Chill: 13°   Ceiling: Unl
Heat Index: 21°   Visibility: 15mi
Dew Point: 12°   Wind: 7mph
Humidity: 68%   Direction: 290°WNW
Pressure: 30.21"   Gusts: NA
Location:  44.1°N, 79.12°W
Report Text: CYKZ 281100Z 29006KT 15SM FEW030 M06/M11 A3021 RMK SC1 SLP240
Loading
Personal Weather Stations






























Interactive Weather Map New forecast layout! Learn more

10-Day Weather Forecast

Advertisements
Track Severe Weather on mobile